createdAt,value
2022-12-24T00:01:07.151Z,-0.10
2022-12-24T00:03:37.221Z,-0.05
2022-12-24T00:06:09.499Z,-0.08
2022-12-24T00:08:37.240Z,-0.06
2022-12-24T00:11:06.395Z,0.01
2022-12-24T00:13:35.994Z,-0.16
2022-12-24T00:16:03.957Z,-0.18
2022-12-24T00:18:31.335Z,-0.23
2022-12-24T00:20:58.655Z,-0.27
2022-12-24T00:23:26.325Z,-0.18
2022-12-24T00:25:53.792Z,-0.22
2022-12-24T00:28:22.038Z,-0.16
2022-12-24T00:30:49.845Z,-0.14
2022-12-24T00:33:24.088Z,-0.42
2022-12-24T00:35:53.183Z,-0.42
2022-12-24T00:38:20.669Z,-0.33
2022-12-24T00:40:47.842Z,-0.42
2022-12-24T00:43:15.573Z,-0.39
2022-12-24T00:45:42.739Z,-0.42
2022-12-24T00:48:10.227Z,-0.39
2022-12-24T00:50:37.846Z,-0.47
2022-12-24T00:53:05.155Z,-0.40
2022-12-24T00:55:32.464Z,-0.45
2022-12-24T00:58:00.126Z,-0.46
2022-12-24T01:00:27.431Z,-0.20
2022-12-24T01:02:54.897Z,-0.47
2022-12-24T01:05:23.326Z,-0.51
2022-12-24T01:07:50.618Z,-0.55
2022-12-24T01:10:21.701Z,-0.61
2022-12-24T01:12:50.436Z,-0.75
2022-12-24T01:15:18.122Z,-0.71
2022-12-24T01:17:45.529Z,-0.65
2022-12-24T01:20:16.780Z,-0.75
2022-12-24T01:22:44.683Z,-0.76
2022-12-24T01:25:12.176Z,-0.67
2022-12-24T01:27:39.730Z,-0.73
2022-12-24T01:30:09.659Z,-0.58
2022-12-24T01:32:37.032Z,-0.57
2022-12-24T01:35:05.023Z,-0.55
2022-12-24T01:37:32.318Z,-0.53
2022-12-24T01:40:17.960Z,-0.48
2022-12-24T01:43:06.681Z,-0.37
2022-12-24T01:46:09.796Z,-0.58
2022-12-24T01:48:42.848Z,-0.68
2022-12-24T01:51:25.390Z,-0.73
2022-12-24T01:54:00.326Z,-0.70
2022-12-24T01:56:31.117Z,-0.56
2022-12-24T01:59:04.851Z,-0.71
2022-12-24T02:01:33.344Z,-0.72
2022-12-24T02:04:05.940Z,-0.69
2022-12-24T02:06:33.311Z,-0.66
2022-12-24T02:09:01.063Z,-0.78
2022-12-24T02:11:28.714Z,-0.66
2022-12-24T02:14:00.590Z,-0.89
2022-12-24T02:16:39.327Z,-0.79
2022-12-24T02:19:09.754Z,-0.84
2022-12-24T02:21:51.013Z,-0.79
2022-12-24T02:24:44.961Z,-0.77
2022-12-24T02:27:18.790Z,-0.74
2022-12-24T02:30:29.913Z,-0.60
2022-12-24T02:33:11.741Z,-0.78
2022-12-24T02:35:51.764Z,-0.85
2022-12-24T02:38:31.718Z,-0.71
2022-12-24T02:41:06.124Z,-0.60
2022-12-24T02:43:38.264Z,-0.50
2022-12-24T02:46:19.024Z,-0.81
2022-12-24T02:48:49.441Z,-0.83
2022-12-24T02:51:17.269Z,-0.71
2022-12-24T02:53:44.732Z,-0.74
2022-12-24T02:56:18.348Z,-0.78
2022-12-24T02:58:59.144Z,-0.68
2022-12-24T03:02:10.157Z,-0.76
2022-12-24T03:04:59.985Z,-0.77
2022-12-24T03:07:56.764Z,-0.55
2022-12-24T03:10:31.593Z,-0.59
2022-12-24T03:13:07.026Z,-0.82
2022-12-24T03:15:35.028Z,-0.85
2022-12-24T03:18:05.583Z,-0.77
2022-12-24T03:21:05.806Z,-0.70
2022-12-24T03:23:35.197Z,-0.60
2022-12-24T03:26:07.762Z,-0.59
2022-12-24T03:28:39.304Z,-0.52
2022-12-24T03:31:08.006Z,-0.43
2022-12-24T03:33:36.132Z,-0.49
2022-12-24T03:36:05.108Z,-0.56
2022-12-24T03:38:32.599Z,-0.47
2022-12-24T03:41:00.724Z,-0.58
2022-12-24T03:43:28.238Z,-0.56
2022-12-24T03:45:55.629Z,-0.43
2022-12-24T03:48:30.784Z,-0.59
2022-12-24T03:50:59.781Z,-0.51
2022-12-24T03:53:27.337Z,-0.86
2022-12-24T03:55:54.716Z,-0.78
2022-12-24T03:58:24.764Z,-0.64
2022-12-24T04:00:56.353Z,-0.60
2022-12-24T04:03:24.663Z,-0.47
2022-12-24T04:06:06.953Z,-0.39
2022-12-24T04:08:35.563Z,-0.26
2022-12-24T04:11:11.186Z,-0.21
2022-12-24T04:13:40.560Z,-0.30
2022-12-24T04:16:11.106Z,-0.30
2022-12-24T04:18:39.356Z,-0.28
2022-12-24T04:21:08.518Z,-0.33
2022-12-24T04:23:39.843Z,-0.69
2022-12-24T04:26:09.779Z,-0.72
2022-12-24T04:28:38.442Z,-0.55
2022-12-24T04:31:08.852Z,-0.40
2022-12-24T04:33:37.116Z,-0.37
2022-12-24T04:36:07.987Z,-0.53
2022-12-24T04:38:35.701Z,-0.42
2022-12-24T04:41:07.235Z,-0.31
2022-12-24T04:43:35.023Z,-0.42
2022-12-24T04:46:09.808Z,-0.23
2022-12-24T04:48:38.517Z,-0.20
2022-12-24T04:51:07.328Z,-0.19
2022-12-24T04:53:35.875Z,-0.74
2022-12-24T04:56:03.772Z,-0.59
2022-12-24T04:58:31.475Z,-0.42
2022-12-24T05:01:07.516Z,-0.36
2022-12-24T05:03:35.445Z,-0.35
2022-12-24T05:06:04.993Z,-0.31
2022-12-24T05:08:32.440Z,-0.19
2022-12-24T05:11:02.024Z,-0.12
2022-12-24T05:13:39.066Z,-0.18
2022-12-24T05:16:11.766Z,-0.07
2022-12-24T05:18:39.463Z,-0.10
2022-12-24T05:21:15.534Z,-0.08
2022-12-24T05:24:02.425Z,-0.14
2022-12-24T05:26:51.825Z,-0.25
2022-12-24T05:29:19.713Z,-0.21
2022-12-24T05:31:47.160Z,-0.58
2022-12-24T05:34:15.761Z,-0.52
2022-12-24T05:36:44.591Z,-0.48
2022-12-24T05:39:18.821Z,-0.38
2022-12-24T05:41:46.614Z,-0.33
2022-12-24T05:44:15.061Z,-0.35
2022-12-24T05:46:43.031Z,-0.13
2022-12-24T05:49:10.801Z,-0.11
2022-12-24T05:51:38.465Z,-0.13
2022-12-24T05:54:05.925Z,-0.05
2022-12-24T05:56:33.969Z,0.06
2022-12-24T05:59:01.267Z,-0.11
2022-12-24T06:01:29.012Z,-0.15
2022-12-24T06:03:57.846Z,-0.36
2022-12-24T06:06:28.480Z,-0.27
2022-12-24T06:08:56.363Z,-0.56
2022-12-24T06:11:27.441Z,-0.57
2022-12-24T06:13:56.122Z,-0.88
2022-12-24T06:16:25.770Z,-0.77
2022-12-24T06:18:53.138Z,-0.42
2022-12-24T06:21:21.324Z,-0.34
2022-12-24T06:23:49.009Z,-0.21
2022-12-24T06:26:19.783Z,-0.09
2022-12-24T06:28:48.645Z,-0.03
2022-12-24T06:31:18.475Z,0.13
2022-12-24T06:33:46.158Z,0.34
2022-12-24T06:36:19.743Z,0.18
2022-12-24T06:38:48.696Z,-0.02
2022-12-24T06:41:17.734Z,0.17
2022-12-24T06:43:49.595Z,0.24
2022-12-24T06:46:18.330Z,0.12
2022-12-24T06:48:46.488Z,0.21
2022-12-24T06:51:15.613Z,0.33
2022-12-24T06:53:43.969Z,0.23
2022-12-24T06:56:13.865Z,0.30
2022-12-24T06:58:41.677Z,0.36
2022-12-24T07:01:12.864Z,0.52
2022-12-24T07:03:40.947Z,0.29
2022-12-24T07:06:35.227Z,0.30
2022-12-24T07:09:02.560Z,0.25
2022-12-24T07:11:30.147Z,0.35
2022-12-24T07:13:57.479Z,0.53
2022-12-24T07:16:24.906Z,0.55
2022-12-24T07:18:53.662Z,0.64
2022-12-24T07:21:21.148Z,0.83
2022-12-24T07:23:48.546Z,0.98
2022-12-24T07:26:16.567Z,0.90
2022-12-24T07:28:44.007Z,0.99
2022-12-24T07:31:11.513Z,1.11
2022-12-24T07:33:39.203Z,1.36
2022-12-24T07:36:10.265Z,1.40
2022-12-24T07:38:38.493Z,1.16
2022-12-24T07:41:06.188Z,1.45
2022-12-24T07:43:35.607Z,1.51
2022-12-24T07:46:03.970Z,1.55
2022-12-24T07:48:33.172Z,1.22
2022-12-24T07:51:01.225Z,0.95
2022-12-24T07:53:29.701Z,1.25
2022-12-24T07:55:58.383Z,1.43
2022-12-24T07:58:26.316Z,1.60
2022-12-24T08:00:59.070Z,1.45
2022-12-24T08:03:27.984Z,1.61
2022-12-24T08:05:55.748Z,1.75
2022-12-24T08:08:23.344Z,1.69
2022-12-24T08:10:52.152Z,1.52
2022-12-24T08:13:20.204Z,1.43
2022-12-24T08:15:47.801Z,1.96
2022-12-24T08:18:15.500Z,2.40
2022-12-24T08:20:42.836Z,2.66
2022-12-24T08:23:10.293Z,2.66
2022-12-24T08:25:38.646Z,2.79
2022-12-24T08:28:06.510Z,2.86
2022-12-24T08:30:34.767Z,2.87
2022-12-24T08:33:02.644Z,3.15
2022-12-24T08:35:30.167Z,3.06
2022-12-24T08:37:57.791Z,3.35
2022-12-24T08:40:25.612Z,3.45
2022-12-24T08:42:53.102Z,3.50
2022-12-24T08:45:20.537Z,3.45
2022-12-24T08:47:48.259Z,3.51
2022-12-24T08:50:15.832Z,3.51
2022-12-24T08:52:43.207Z,3.58
2022-12-24T08:55:10.845Z,3.62
2022-12-24T08:57:38.596Z,3.60
2022-12-24T09:00:07.255Z,3.51
2022-12-24T09:02:35.298Z,3.51
2022-12-24T09:05:03.091Z,3.41
2022-12-24T09:07:30.680Z,3.69
2022-12-24T09:10:00.346Z,3.62
2022-12-24T09:12:30.038Z,3.76
2022-12-24T09:15:03.204Z,3.76
2022-12-24T09:17:31.367Z,3.74
2022-12-24T09:19:59.055Z,3.84
2022-12-24T09:22:26.529Z,3.93
2022-12-24T09:24:54.702Z,4.12
2022-12-24T09:27:22.637Z,3.89
2022-12-24T09:29:50.135Z,4.15
2022-12-24T09:32:17.764Z,4.29
2022-12-24T09:34:45.505Z,4.39
2022-12-24T09:37:12.826Z,4.48
2022-12-24T09:39:40.228Z,4.62
2022-12-24T09:42:23.451Z,4.68
2022-12-24T09:44:59.107Z,4.50
2022-12-24T09:47:47.031Z,4.42
2022-12-24T09:50:32.718Z,4.48
2022-12-24T09:53:05.133Z,4.49
2022-12-24T09:55:44.442Z,4.59
2022-12-24T09:58:24.279Z,4.60
2022-12-24T10:00:52.977Z,4.74
2022-12-24T10:03:20.943Z,4.56
2022-12-24T10:05:56.382Z,4.51
2022-12-24T10:08:32.948Z,4.82
2022-12-24T10:11:09.290Z,4.99
2022-12-24T10:14:04.306Z,5.03
2022-12-24T10:16:58.542Z,5.03
2022-12-24T10:19:40.444Z,4.98
2022-12-24T10:22:49.032Z,5.16
2022-12-24T10:25:50.063Z,5.22
2022-12-24T10:28:21.892Z,5.35
2022-12-24T10:30:53.358Z,4.87
2022-12-24T10:33:38.777Z,5.00
2022-12-24T10:36:12.509Z,4.81
2022-12-24T10:38:39.991Z,4.98
2022-12-24T10:41:08.642Z,4.93
2022-12-24T10:43:37.932Z,5.07
2022-12-24T10:46:07.096Z,5.24
2022-12-24T10:48:49.991Z,5.48
2022-12-24T10:51:46.236Z,5.53
2022-12-24T10:54:26.593Z,5.75
2022-12-24T10:57:00.487Z,5.98
2022-12-24T10:59:32.178Z,6.06
2022-12-24T11:02:01.400Z,6.11
2022-12-24T11:04:31.973Z,6.19
2022-12-24T11:07:07.421Z,6.33
2022-12-24T11:09:40.680Z,6.47
2022-12-24T11:12:19.207Z,6.53
2022-12-24T11:14:47.233Z,6.69
2022-12-24T11:17:23.832Z,6.73
2022-12-24T11:19:51.790Z,6.56
2022-12-24T11:22:28.396Z,6.58
2022-12-24T11:25:20.112Z,6.58
2022-12-24T11:27:50.846Z,6.76
2022-12-24T11:30:21.928Z,6.70
2022-12-24T11:33:04.441Z,6.85
2022-12-24T11:35:39.540Z,6.78
2022-12-24T11:38:06.822Z,6.80
2022-12-24T11:40:41.584Z,7.06
2022-12-24T11:43:20.977Z,7.20
2022-12-24T11:45:57.151Z,7.22
2022-12-24T11:48:30.285Z,7.38
2022-12-24T11:51:03.757Z,7.53
2022-12-24T11:54:06.580Z,7.67
2022-12-24T11:56:39.229Z,7.83
2022-12-24T11:59:42.020Z,8.01
2022-12-24T12:02:48.445Z,8.28
2022-12-24T12:05:32.297Z,8.51
2022-12-24T12:08:13.044Z,8.30
2022-12-24T12:10:43.780Z,8.51
2022-12-24T12:13:18.792Z,8.77
2022-12-24T12:15:56.263Z,8.88
2022-12-24T12:18:30.853Z,8.67
2022-12-24T12:21:06.393Z,8.36
2022-12-24T12:23:37.344Z,8.43
2022-12-24T12:26:11.375Z,8.52
2022-12-24T12:28:55.816Z,8.30
2022-12-24T12:31:32.380Z,8.36
2022-12-24T12:34:06.403Z,8.34
2022-12-24T12:36:41.310Z,8.27
2022-12-24T12:39:10.876Z,8.10
2022-12-24T12:41:47.696Z,8.17
2022-12-24T12:44:45.069Z,8.11
2022-12-24T12:47:27.817Z,8.01
2022-12-24T12:50:08.411Z,8.02
2022-12-24T12:53:18.023Z,8.18
2022-12-24T12:56:20.317Z,8.30
2022-12-24T12:59:07.620Z,8.82
2022-12-24T13:01:56.945Z,8.93
2022-12-24T13:05:01.743Z,8.87
2022-12-24T13:07:47.882Z,8.68
2022-12-24T13:10:27.347Z,8.53
2022-12-24T13:13:26.019Z,8.48
2022-12-24T13:15:53.776Z,8.42
2022-12-24T13:18:55.840Z,8.33
2022-12-24T13:21:26.798Z,8.31
2022-12-24T13:24:06.745Z,8.26
2022-12-24T13:26:35.732Z,8.28
2022-12-24T13:29:31.486Z,8.25
2022-12-24T13:32:21.264Z,8.20
2022-12-24T13:34:53.281Z,8.23
2022-12-24T13:37:34.919Z,8.32
2022-12-24T13:40:08.707Z,8.34
2022-12-24T13:43:07.222Z,8.28
2022-12-24T13:45:34.631Z,8.05
2022-12-24T13:48:02.278Z,7.94
2022-12-24T13:50:35.290Z,8.13
2022-12-24T13:53:04.221Z,7.92
2022-12-24T13:55:32.315Z,7.95
2022-12-24T13:58:03.442Z,7.96
2022-12-24T14:00:51.828Z,7.95
2022-12-24T14:03:27.148Z,7.97
2022-12-24T14:05:59.482Z,7.89
2022-12-24T14:08:31.696Z,7.79
2022-12-24T14:11:26.212Z,7.83
2022-12-24T14:14:04.070Z,7.83
2022-12-24T14:16:41.592Z,7.90
2022-12-24T14:19:20.736Z,7.89
2022-12-24T14:22:05.257Z,7.82
2022-12-24T14:24:41.862Z,7.78
2022-12-24T14:27:47.652Z,8.10
2022-12-24T14:30:25.720Z,8.12
2022-12-24T14:32:54.350Z,7.85
2022-12-24T14:35:39.882Z,7.70
2022-12-24T14:38:14.631Z,7.67
2022-12-24T14:40:54.971Z,7.53
2022-12-24T14:43:30.918Z,7.47
2022-12-24T14:46:12.615Z,7.72
2022-12-24T14:48:55.357Z,7.50
2022-12-24T14:51:40.332Z,7.43
2022-12-24T14:54:17.796Z,7.51
2022-12-24T14:56:45.465Z,7.49
2022-12-24T14:59:20.085Z,7.71
2022-12-24T15:01:47.880Z,7.51
2022-12-24T15:04:18.188Z,7.31
2022-12-24T15:06:57.872Z,7.41
2022-12-24T15:09:29.575Z,7.43
2022-12-24T15:12:03.991Z,7.39
2022-12-24T15:14:41.798Z,7.26
2022-12-24T15:17:12.558Z,7.24
2022-12-24T15:19:43.841Z,7.19
2022-12-24T15:22:26.131Z,7.15
2022-12-24T15:24:53.939Z,7.13
2022-12-24T15:27:25.961Z,7.08
2022-12-24T15:29:58.604Z,7.08
2022-12-24T15:32:26.064Z,7.01
2022-12-24T15:34:55.572Z,6.99
2022-12-24T15:37:27.259Z,6.77
2022-12-24T15:39:58.793Z,6.70
2022-12-24T15:42:28.009Z,6.68
2022-12-24T15:45:28.211Z,6.73
2022-12-24T15:47:59.503Z,6.76
2022-12-24T15:50:27.421Z,6.77
2022-12-24T15:53:19.954Z,6.78
2022-12-24T15:55:48.226Z,6.70
2022-12-24T15:58:28.628Z,6.70
2022-12-24T16:01:24.118Z,6.83
2022-12-24T16:03:51.870Z,6.78
2022-12-24T16:06:20.530Z,6.78
2022-12-24T16:08:48.647Z,6.85
2022-12-24T16:11:36.284Z,6.74
2022-12-24T16:14:09.770Z,6.81
2022-12-24T16:16:46.867Z,6.80
2022-12-24T16:19:40.072Z,6.78
2022-12-24T16:22:30.343Z,6.86
2022-12-24T16:25:18.219Z,6.84
2022-12-24T16:27:45.931Z,6.68
2022-12-24T16:30:13.321Z,6.47
2022-12-24T16:32:44.488Z,6.41
2022-12-24T16:35:33.525Z,6.38
2022-12-24T16:38:00.837Z,6.44
2022-12-24T16:40:28.727Z,6.50
2022-12-24T16:43:17.411Z,6.40
2022-12-24T16:45:46.841Z,6.50
2022-12-24T16:48:20.916Z,6.44
2022-12-24T16:50:49.611Z,6.44
2022-12-24T16:53:19.116Z,6.44
2022-12-24T16:55:47.914Z,6.35
2022-12-24T16:58:16.462Z,6.41
2022-12-24T17:00:45.036Z,6.31
2022-12-24T17:03:12.918Z,6.24
2022-12-24T17:05:42.468Z,6.32
2022-12-24T17:08:10.038Z,6.21
2022-12-24T17:10:37.404Z,6.38
2022-12-24T17:13:05.821Z,6.37
2022-12-24T17:15:33.298Z,6.47
2022-12-24T17:18:01.010Z,6.20
2022-12-24T17:20:29.700Z,6.08
2022-12-24T17:22:57.321Z,6.32
2022-12-24T17:25:25.292Z,6.22
2022-12-24T17:27:52.958Z,6.25
2022-12-24T17:30:20.559Z,6.26
2022-12-24T17:32:47.998Z,6.24
2022-12-24T17:35:16.225Z,6.10
2022-12-24T17:37:43.802Z,6.13
2022-12-24T17:40:11.981Z,6.18
2022-12-24T17:42:39.718Z,6.23
2022-12-24T17:45:07.454Z,6.23
2022-12-24T17:47:34.984Z,5.95
2022-12-24T17:50:02.808Z,6.08
2022-12-24T17:52:30.339Z,6.03
2022-12-24T17:54:57.706Z,6.00
2022-12-24T17:57:25.458Z,6.02
2022-12-24T17:59:52.961Z,5.99
2022-12-24T18:02:20.618Z,6.07
2022-12-24T18:04:48.512Z,6.14
2022-12-24T18:07:15.960Z,6.18
2022-12-24T18:09:46.407Z,6.13
2022-12-24T18:12:14.383Z,6.10
2022-12-24T18:14:41.782Z,6.09
2022-12-24T18:17:09.425Z,5.88
2022-12-24T18:19:37.127Z,6.12
2022-12-24T18:22:04.396Z,5.99
2022-12-24T18:24:31.686Z,6.05
2022-12-24T18:26:59.493Z,6.15
2022-12-24T18:29:26.767Z,6.13
2022-12-24T18:31:54.215Z,6.15
2022-12-24T18:34:21.801Z,6.12
2022-12-24T18:36:54.763Z,6.35
2022-12-24T18:39:23.550Z,6.05
2022-12-24T18:41:51.434Z,5.97
2022-12-24T18:44:24.532Z,6.09
2022-12-24T18:46:54.407Z,5.93
2022-12-24T18:49:21.944Z,6.11
2022-12-24T18:51:49.212Z,6.23
2022-12-24T18:54:17.068Z,6.22
2022-12-24T18:56:44.422Z,6.20
2022-12-24T18:59:11.726Z,6.23
2022-12-24T19:01:39.698Z,6.21
2022-12-24T19:04:08.421Z,6.20
2022-12-24T19:06:36.017Z,6.22
2022-12-24T19:09:03.748Z,6.38
2022-12-24T19:11:32.993Z,6.34
2022-12-24T19:14:02.216Z,6.38
2022-12-24T19:16:32.983Z,6.35
2022-12-24T19:19:00.497Z,6.32
2022-12-24T19:21:27.832Z,6.43
2022-12-24T19:23:55.460Z,6.41
2022-12-24T19:26:23.954Z,6.39
2022-12-24T19:28:51.751Z,6.35
2022-12-24T19:31:22.956Z,6.65
2022-12-24T19:33:56.116Z,6.68
2022-12-24T19:36:29.537Z,6.76
2022-12-24T19:38:58.314Z,6.75
2022-12-24T19:41:29.151Z,6.92
2022-12-24T19:43:58.787Z,6.98
2022-12-24T19:46:30.134Z,6.91
2022-12-24T19:49:00.393Z,7.19
2022-12-24T19:51:29.886Z,7.10
2022-12-24T19:53:59.548Z,7.08
2022-12-24T19:56:29.142Z,7.16
2022-12-24T19:58:57.903Z,7.03
2022-12-24T20:01:27.875Z,7.05
2022-12-24T20:03:56.586Z,6.99
2022-12-24T20:06:26.840Z,7.05
2022-12-24T20:09:01.994Z,7.14
2022-12-24T20:11:30.221Z,7.22
2022-12-24T20:14:00.508Z,7.09
2022-12-24T20:16:29.654Z,7.07
2022-12-24T20:19:00.308Z,7.00
2022-12-24T20:21:28.092Z,6.97
2022-12-24T20:23:55.728Z,7.00
2022-12-24T20:26:26.977Z,6.99
2022-12-24T20:28:55.329Z,6.82
2022-12-24T20:31:26.133Z,6.89
2022-12-24T20:33:54.074Z,6.88
2022-12-24T20:36:23.521Z,6.82
2022-12-24T20:38:51.659Z,6.76
2022-12-24T20:41:22.560Z,6.75
2022-12-24T20:43:50.663Z,6.69
2022-12-24T20:46:20.677Z,6.76
2022-12-24T20:48:49.111Z,6.70
2022-12-24T20:51:24.698Z,6.58
2022-12-24T20:53:54.303Z,6.56
2022-12-24T20:56:22.603Z,6.43
2022-12-24T20:58:50.187Z,6.41
2022-12-24T21:01:22.003Z,6.33
2022-12-24T21:03:49.433Z,6.19
2022-12-24T21:06:18.126Z,6.10
2022-12-24T21:08:48.636Z,6.03
2022-12-24T21:11:34.343Z,6.00
2022-12-24T21:14:03.395Z,5.93
2022-12-24T21:16:32.585Z,5.77
2022-12-24T21:19:00.485Z,5.77
2022-12-24T21:21:28.575Z,6.02
2022-12-24T21:23:56.051Z,5.87
2022-12-24T21:26:23.614Z,5.81
2022-12-24T21:28:51.317Z,5.64
2022-12-24T21:31:18.838Z,5.56
2022-12-24T21:33:46.808Z,5.52
2022-12-24T21:36:15.932Z,5.51
2022-12-24T21:38:43.763Z,5.37
2022-12-24T21:41:14.388Z,5.30
2022-12-24T21:43:42.731Z,5.04
2022-12-24T21:46:13.215Z,5.05
2022-12-24T21:48:59.682Z,5.25
2022-12-24T21:51:28.489Z,4.94
2022-12-24T21:54:15.402Z,4.98
2022-12-24T21:57:06.715Z,4.94
2022-12-24T21:59:34.238Z,4.94
2022-12-24T22:02:02.116Z,4.91
2022-12-24T22:04:32.499Z,4.99
2022-12-24T22:07:18.355Z,4.87
2022-12-24T22:10:24.821Z,4.76
2022-12-24T22:12:53.748Z,4.59
2022-12-24T22:15:21.927Z,4.45
2022-12-24T22:17:49.289Z,4.43
2022-12-24T22:20:16.771Z,4.60
2022-12-24T22:22:44.383Z,4.56
2022-12-24T22:25:13.736Z,4.19
2022-12-24T22:27:41.148Z,4.27
2022-12-24T22:30:09.657Z,3.92
2022-12-24T22:32:37.116Z,3.86
2022-12-24T22:35:04.745Z,3.98
2022-12-24T22:37:32.399Z,3.75
2022-12-24T22:39:59.687Z,3.88
2022-12-24T22:42:27.013Z,3.79
2022-12-24T22:44:54.650Z,3.80
2022-12-24T22:47:21.975Z,3.77
2022-12-24T22:49:50.582Z,3.69
2022-12-24T22:52:18.236Z,3.78
2022-12-24T22:54:45.517Z,3.80
2022-12-24T22:57:13.135Z,3.81
2022-12-24T22:59:40.724Z,3.73
2022-12-24T23:02:08.366Z,3.75
2022-12-24T23:04:40.951Z,3.75
2022-12-24T23:07:11.424Z,3.75
2022-12-24T23:09:39.680Z,3.71
2022-12-24T23:12:08.334Z,3.66
2022-12-24T23:14:54.684Z,3.57
2022-12-24T23:17:21.998Z,3.66
2022-12-24T23:19:49.641Z,3.48
2022-12-24T23:22:16.970Z,3.58
2022-12-24T23:24:44.636Z,3.34
2022-12-24T23:27:12.402Z,3.39
2022-12-24T23:29:40.059Z,3.22
2022-12-24T23:32:07.391Z,3.22
2022-12-24T23:34:35.011Z,3.01
2022-12-24T23:37:02.217Z,3.00
2022-12-24T23:39:29.564Z,2.87
2022-12-24T23:41:57.398Z,2.78
2022-12-24T23:44:31.762Z,2.85
2022-12-24T23:47:00.364Z,2.82
2022-12-24T23:49:27.911Z,2.85
2022-12-24T23:51:55.296Z,2.91
2022-12-24T23:54:23.085Z,2.97
2022-12-24T23:56:50.404Z,3.02
2022-12-24T23:59:17.704Z,2.83
